sensor_id;sensor_type;location;lat;lon;timestamp;temperature;humidity
25328;DHT22;13279;51.300;12.394;2023-05-10T00:00:47;11.70;99.90
25328;DHT22;13279;51.300;12.394;2023-05-10T00:03:14;11.60;99.90
25328;DHT22;13279;51.300;12.394;2023-05-10T00:05:42;11.60;99.90
25328;DHT22;13279;51.300;12.394;2023-05-10T00:08:09;11.60;99.90
25328;DHT22;13279;51.300;12.394;2023-05-10T00:10:37;11.50;99.90
25328;DHT22;13279;51.300;12.394;2023-05-10T00:13:04;11.50;99.90
25328;DHT22;13279;51.300;12.394;2023-05-10T00:15:33;11.50;99.90
25328;DHT22;13279;51.300;12.394;2023-05-10T00:18:01;11.50;99.90
25328;DHT22;13279;51.300;12.394;2023-05-10T00:20:29;11.50;99.90
25328;DHT22;13279;51.300;12.394;2023-05-10T00:22:56;11.40;99.90
25328;DHT22;13279;51.300;12.394;2023-05-10T00:25:24;11.50;99.90
25328;DHT22;13279;51.300;12.394;2023-05-10T00:27:51;11.40;99.90
25328;DHT22;13279;51.300;12.394;2023-05-10T00:30:21;11.40;99.90
25328;DHT22;13279;51.300;12.394;2023-05-10T00:32:49;11.40;99.90
25328;DHT22;13279;51.300;12.394;2023-05-10T00:35:18;11.40;99.90
25328;DHT22;13279;51.300;12.394;2023-05-10T00:37:45;11.40;99.90
25328;DHT22;13279;51.300;12.394;2023-05-10T00:40:13;11.30;99.90
25328;DHT22;13279;51.300;12.394;2023-05-10T00:42:45;11.30;99.90
25328;DHT22;13279;51.300;12.394;2023-05-10T00:45:12;11.30;99.90
25328;DHT22;13279;51.300;12.394;2023-05-10T00:47:40;11.30;99.90
25328;DHT22;13279;51.300;12.394;2023-05-10T00:50:10;11.30;99.90
25328;DHT22;13279;51.300;12.394;2023-05-10T00:52:37;11.30;99.90
25328;DHT22;13279;51.300;12.394;2023-05-10T00:55:06;11.30;99.90
25328;DHT22;13279;51.300;12.394;2023-05-10T00:57:33;11.20;99.90
25328;DHT22;13279;51.300;12.394;2023-05-10T01:00:02;11.20;99.90
25328;DHT22;13279;51.300;12.394;2023-05-10T01:02:29;11.20;99.90
25328;DHT22;13279;51.300;12.394;2023-05-10T01:04:57;11.20;99.90
25328;DHT22;13279;51.300;12.394;2023-05-10T01:07:26;11.10;99.90
25328;DHT22;13279;51.300;12.394;2023-05-10T01:09:53;11.10;99.90
25328;DHT22;13279;51.300;12.394;2023-05-10T01:12:20;11.00;99.90
25328;DHT22;13279;51.300;12.394;2023-05-10T01:14:48;11.00;99.90
25328;DHT22;13279;51.300;12.394;2023-05-10T01:17:16;11.00;99.90
25328;DHT22;13279;51.300;12.394;2023-05-10T01:19:44;11.00;99.90
25328;DHT22;13279;51.300;12.394;2023-05-10T01:22:25;11.00;99.90
25328;DHT22;13279;51.300;12.394;2023-05-10T01:31:21;11.00;99.90
25328;DHT22;13279;51.300;12.394;2023-05-10T01:33:55;11.00;99.90
25328;DHT22;13279;51.300;12.394;2023-05-10T01:36:31;10.90;99.90
25328;DHT22;13279;51.300;12.394;2023-05-10T01:39:05;10.90;99.90
25328;DHT22;13279;51.300;12.394;2023-05-10T01:41:39;10.90;99.90
25328;DHT22;13279;51.300;12.394;2023-05-10T01:44:15;10.90;99.90
25328;DHT22;13279;51.300;12.394;2023-05-10T01:46:50;10.90;99.90
25328;DHT22;13279;51.300;12.394;2023-05-10T01:49:25;10.90;99.90
25328;DHT22;13279;51.300;12.394;2023-05-10T01:51:55;10.90;99.90
25328;DHT22;13279;51.300;12.394;2023-05-10T01:54:25;10.90;99.90
25328;DHT22;13279;51.300;12.394;2023-05-10T01:56:58;10.90;99.90
25328;DHT22;13279;51.300;12.394;2023-05-10T01:59:30;10.90;99.90
25328;DHT22;13279;51.300;12.394;2023-05-10T02:02:04;10.90;99.90
25328;DHT22;13279;51.300;12.394;2023-05-10T02:04:35;10.90;99.90
25328;DHT22;13279;51.300;12.394;2023-05-10T02:07:06;10.90;99.90
25328;DHT22;13279;51.300;12.394;2023-05-10T02:09:34;10.80;99.90
25328;DHT22;13279;51.300;12.394;2023-05-10T02:12:05;10.80;99.90
25328;DHT22;13279;51.300;12.394;2023-05-10T02:14:36;10.80;99.90
25328;DHT22;13279;51.300;12.394;2023-05-10T02:17:05;10.70;99.90
25328;DHT22;13279;51.300;12.394;2023-05-10T02:19:37;10.70;99.90
25328;DHT22;13279;51.300;12.394;2023-05-10T02:22:06;10.70;99.90
25328;DHT22;13279;51.300;12.394;2023-05-10T02:24:34;10.70;99.90
25328;DHT22;13279;51.300;12.394;2023-05-10T02:27:03;10.70;99.90
25328;DHT22;13279;51.300;12.394;2023-05-10T02:29:32;10.60;99.90
25328;DHT22;13279;51.300;12.394;2023-05-10T02:32:00;10.60;99.90
25328;DHT22;13279;51.300;12.394;2023-05-10T02:34:30;10.60;99.90
25328;DHT22;13279;51.300;12.394;2023-05-10T02:37:01;10.60;99.90
25328;DHT22;13279;51.300;12.394;2023-05-10T02:39:32;10.60;99.90
25328;DHT22;13279;51.300;12.394;2023-05-10T02:42:00;10.50;99.90
25328;DHT22;13279;51.300;12.394;2023-05-10T02:44:29;10.50;99.90
25328;DHT22;13279;51.300;12.394;2023-05-10T02:46:58;10.50;99.90
25328;DHT22;13279;51.300;12.394;2023-05-10T02:49:25;10.50;99.90
25328;DHT22;13279;51.300;12.394;2023-05-10T02:52:00;10.50;99.90
25328;DHT22;13279;51.300;12.394;2023-05-10T02:54:32;10.40;99.90
25328;DHT22;13279;51.300;12.394;2023-05-10T02:57:02;10.40;99.90
25328;DHT22;13279;51.300;12.394;2023-05-10T02:59:30;10.40;99.90
25328;DHT22;13279;51.300;12.394;2023-05-10T03:01:58;10.40;99.90
25328;DHT22;13279;51.300;12.394;2023-05-10T03:04:26;10.40;99.90
25328;DHT22;13279;51.300;12.394;2023-05-10T03:06:56;10.40;99.90
25328;DHT22;13279;51.300;12.394;2023-05-10T03:09:25;10.40;99.90
25328;DHT22;13279;51.300;12.394;2023-05-10T03:11:59;10.30;99.90
25328;DHT22;13279;51.300;12.394;2023-05-10T03:14:39;10.30;99.90
25328;DHT22;13279;51.300;12.394;2023-05-10T03:17:14;10.30;99.90
25328;DHT22;13279;51.300;12.394;2023-05-10T03:19:48;10.30;99.90
25328;DHT22;13279;51.300;12.394;2023-05-10T03:22:26;10.30;99.90
25328;DHT22;13279;51.300;12.394;2023-05-10T03:24:58;10.30;99.90
25328;DHT22;13279;51.300;12.394;2023-05-10T03:27:30;10.30;99.90
25328;DHT22;13279;51.300;12.394;2023-05-10T03:30:00;10.30;99.90
25328;DHT22;13279;51.300;12.394;2023-05-10T03:32:31;10.30;99.90
25328;DHT22;13279;51.300;12.394;2023-05-10T03:35:01;10.40;99.90
25328;DHT22;13279;51.300;12.394;2023-05-10T03:37:28;10.40;99.90
25328;DHT22;13279;51.300;12.394;2023-05-10T03:40:00;10.30;99.90
25328;DHT22;13279;51.300;12.394;2023-05-10T03:42:29;10.40;99.90
25328;DHT22;13279;51.300;12.394;2023-05-10T03:44:57;10.30;99.90
25328;DHT22;13279;51.300;12.394;2023-05-10T03:47:24;10.40;99.90
25328;DHT22;13279;51.300;12.394;2023-05-10T03:49:52;10.40;99.90
25328;DHT22;13279;51.300;12.394;2023-05-10T03:52:19;10.40;99.90
25328;DHT22;13279;51.300;12.394;2023-05-10T03:54:49;10.40;99.90
25328;DHT22;13279;51.300;12.394;2023-05-10T03:57:18;10.50;99.90
25328;DHT22;13279;51.300;12.394;2023-05-10T03:59:45;10.50;99.90
25328;DHT22;13279;51.300;12.394;2023-05-10T04:02:13;10.50;99.90
25328;DHT22;13279;51.300;12.394;2023-05-10T04:04:40;10.50;99.90
25328;DHT22;13279;51.300;12.394;2023-05-10T04:07:08;10.60;99.90
25328;DHT22;13279;51.300;12.394;2023-05-10T04:09:36;10.60;99.90
25328;DHT22;13279;51.300;12.394;2023-05-10T04:12:05;10.60;99.90
25328;DHT22;13279;51.300;12.394;2023-05-10T04:14:33;10.60;99.90
25328;DHT22;13279;51.300;12.394;2023-05-10T04:17:01;10.70;99.90
25328;DHT22;13279;51.300;12.394;2023-05-10T04:19:29;10.70;99.90
25328;DHT22;13279;51.300;12.394;2023-05-10T04:21:57;10.80;99.90
25328;DHT22;13279;51.300;12.394;2023-05-10T04:24:24;10.80;99.90
25328;DHT22;13279;51.300;12.394;2023-05-10T04:26:54;10.80;99.90
25328;DHT22;13279;51.300;12.394;2023-05-10T04:29:21;11.00;99.90
25328;DHT22;13279;51.300;12.394;2023-05-10T04:31:50;11.00;99.90
25328;DHT22;13279;51.300;12.394;2023-05-10T04:34:18;11.10;99.90
25328;DHT22;13279;51.300;12.394;2023-05-10T04:36:45;11.20;99.90
25328;DHT22;13279;51.300;12.394;2023-05-10T04:39:15;11.30;99.90
25328;DHT22;13279;51.300;12.394;2023-05-10T04:41:43;11.30;99.90
25328;DHT22;13279;51.300;12.394;2023-05-10T04:44:10;11.40;99.90
25328;DHT22;13279;51.300;12.394;2023-05-10T04:46:37;11.50;99.90
25328;DHT22;13279;51.300;12.394;2023-05-10T04:49:06;11.70;99.90
25328;DHT22;13279;51.300;12.394;2023-05-10T04:51:34;11.70;99.90
25328;DHT22;13279;51.300;12.394;2023-05-10T04:54:01;11.80;99.90
25328;DHT22;13279;51.300;12.394;2023-05-10T04:56:29;12.00;99.90
25328;DHT22;13279;51.300;12.394;2023-05-10T04:58:56;12.10;99.90
25328;DHT22;13279;51.300;12.394;2023-05-10T05:01:24;12.10;99.90
25328;DHT22;13279;51.300;12.394;2023-05-10T05:03:51;12.30;99.90
25328;DHT22;13279;51.300;12.394;2023-05-10T05:06:21;12.40;99.90
25328;DHT22;13279;51.300;12.394;2023-05-10T05:08:51;12.50;99.90
25328;DHT22;13279;51.300;12.394;2023-05-10T05:11:18;12.60;99.90
25328;DHT22;13279;51.300;12.394;2023-05-10T05:13:47;12.80;99.90
25328;DHT22;13279;51.300;12.394;2023-05-10T05:16:14;12.90;99.90
25328;DHT22;13279;51.300;12.394;2023-05-10T05:18:42;12.90;99.90
25328;DHT22;13279;51.300;12.394;2023-05-10T05:21:15;13.10;99.90
25328;DHT22;13279;51.300;12.394;2023-05-10T05:23:44;13.20;99.90
25328;DHT22;13279;51.300;12.394;2023-05-10T05:26:12;13.20;99.90
25328;DHT22;13279;51.300;12.394;2023-05-10T05:28:41;13.40;99.90
25328;DHT22;13279;51.300;12.394;2023-05-10T05:31:08;13.50;99.90
25328;DHT22;13279;51.300;12.394;2023-05-10T05:33:35;13.50;99.90
25328;DHT22;13279;51.300;12.394;2023-05-10T05:36:04;13.60;99.90
25328;DHT22;13279;51.300;12.394;2023-05-10T05:38:32;13.70;99.90
25328;DHT22;13279;51.300;12.394;2023-05-10T05:41:01;13.80;99.90
25328;DHT22;13279;51.300;12.394;2023-05-10T05:43:29;13.80;99.90
25328;DHT22;13279;51.300;12.394;2023-05-10T05:45:56;13.80;99.90
25328;DHT22;13279;51.300;12.394;2023-05-10T05:48:25;13.80;99.90
25328;DHT22;13279;51.300;12.394;2023-05-10T05:50:54;13.90;99.90
25328;DHT22;13279;51.300;12.394;2023-05-10T05:53:23;13.90;99.90
25328;DHT22;13279;51.300;12.394;2023-05-10T05:55:53;13.90;99.90
25328;DHT22;13279;51.300;12.394;2023-05-10T05:58:22;13.90;99.90
25328;DHT22;13279;51.300;12.394;2023-05-10T06:00:50;14.00;99.90
25328;DHT22;13279;51.300;12.394;2023-05-10T06:03:19;14.00;99.90
25328;DHT22;13279;51.300;12.394;2023-05-10T06:05:46;14.10;99.90
25328;DHT22;13279;51.300;12.394;2023-05-10T06:08:14;14.10;99.90
25328;DHT22;13279;51.300;12.394;2023-05-10T06:10:41;14.10;99.90
25328;DHT22;13279;51.300;12.394;2023-05-10T06:13:09;14.10;99.90
25328;DHT22;13279;51.300;12.394;2023-05-10T06:15:38;14.20;99.90
25328;DHT22;13279;51.300;12.394;2023-05-10T06:18:05;14.30;99.90
25328;DHT22;13279;51.300;12.394;2023-05-10T06:20:33;14.30;99.90
25328;DHT22;13279;51.300;12.394;2023-05-10T06:23:01;14.40;99.90
25328;DHT22;13279;51.300;12.394;2023-05-10T06:25:28;14.50;99.90
25328;DHT22;13279;51.300;12.394;2023-05-10T06:27:56;14.60;99.90
25328;DHT22;13279;51.300;12.394;2023-05-10T06:30:24;14.60;99.90
25328;DHT22;13279;51.300;12.394;2023-05-10T06:32:55;14.70;99.90
25328;DHT22;13279;51.300;12.394;2023-05-10T06:35:23;14.80;99.90
25328;DHT22;13279;51.300;12.394;2023-05-10T06:37:51;15.00;99.90
25328;DHT22;13279;51.300;12.394;2023-05-10T06:40:18;15.20;99.90
25328;DHT22;13279;51.300;12.394;2023-05-10T06:42:46;15.40;99.90
25328;DHT22;13279;51.300;12.394;2023-05-10T06:45:14;15.80;99.90
25328;DHT22;13279;51.300;12.394;2023-05-10T06:47:42;16.20;99.90
25328;DHT22;13279;51.300;12.394;2023-05-10T06:50:11;16.40;99.90
25328;DHT22;13279;51.300;12.394;2023-05-10T06:52:39;16.50;99.90
25328;DHT22;13279;51.300;12.394;2023-05-10T06:55:07;16.60;99.90
25328;DHT22;13279;51.300;12.394;2023-05-10T06:57:35;16.60;99.90
25328;DHT22;13279;51.300;12.394;2023-05-10T07:00:03;16.40;99.90
25328;DHT22;13279;51.300;12.394;2023-05-10T07:02:32;16.40;99.90
25328;DHT22;13279;51.300;12.394;2023-05-10T07:04:59;16.30;99.90
25328;DHT22;13279;51.300;12.394;2023-05-10T07:07:28;16.30;99.90
25328;DHT22;13279;51.300;12.394;2023-05-10T07:09:55;16.30;99.90
25328;DHT22;13279;51.300;12.394;2023-05-10T07:12:24;16.30;99.90
25328;DHT22;13279;51.300;12.394;2023-05-10T07:14:51;16.20;99.90
25328;DHT22;13279;51.300;12.394;2023-05-10T07:17:19;16.30;99.90
25328;DHT22;13279;51.300;12.394;2023-05-10T07:19:46;16.60;99.90
25328;DHT22;13279;51.300;12.394;2023-05-10T07:22:14;16.90;99.90
25328;DHT22;13279;51.300;12.394;2023-05-10T07:24:42;17.30;99.90
25328;DHT22;13279;51.300;12.394;2023-05-10T07:27:10;17.50;99.90
25328;DHT22;13279;51.300;12.394;2023-05-10T07:29:38;17.50;99.90
25328;DHT22;13279;51.300;12.394;2023-05-10T07:32:06;17.70;99.90
25328;DHT22;13279;51.300;12.394;2023-05-10T07:34:33;17.50;99.90
25328;DHT22;13279;51.300;12.394;2023-05-10T07:37:01;17.60;99.90
25328;DHT22;13279;51.300;12.394;2023-05-10T07:39:28;17.80;99.90
25328;DHT22;13279;51.300;12.394;2023-05-10T07:41:57;17.90;99.90
25328;DHT22;13279;51.300;12.394;2023-05-10T07:44:24;17.80;99.90
25328;DHT22;13279;51.300;12.394;2023-05-10T07:46:52;17.60;99.90
25328;DHT22;13279;51.300;12.394;2023-05-10T07:49:19;17.30;99.90
25328;DHT22;13279;51.300;12.394;2023-05-10T07:51:47;17.10;99.90
25328;DHT22;13279;51.300;12.394;2023-05-10T07:54:14;16.90;99.90
25328;DHT22;13279;51.300;12.394;2023-05-10T07:56:42;16.90;99.90
25328;DHT22;13279;51.300;12.394;2023-05-10T07:59:17;16.60;99.90
25328;DHT22;13279;51.300;12.394;2023-05-10T08:01:44;16.50;99.90
25328;DHT22;13279;51.300;12.394;2023-05-10T08:04:12;16.30;99.90
25328;DHT22;13279;51.300;12.394;2023-05-10T08:06:40;16.40;99.90
25328;DHT22;13279;51.300;12.394;2023-05-10T08:09:07;16.60;99.90
25328;DHT22;13279;51.300;12.394;2023-05-10T08:11:35;16.70;99.90
25328;DHT22;13279;51.300;12.394;2023-05-10T08:14:03;16.90;99.90
25328;DHT22;13279;51.300;12.394;2023-05-10T08:16:32;16.90;99.90
25328;DHT22;13279;51.300;12.394;2023-05-10T08:19:00;17.00;99.90
25328;DHT22;13279;51.300;12.394;2023-05-10T08:21:27;17.00;99.90
25328;DHT22;13279;51.300;12.394;2023-05-10T08:23:55;16.80;99.90
25328;DHT22;13279;51.300;12.394;2023-05-10T08:26:23;16.40;99.90
25328;DHT22;13279;51.300;12.394;2023-05-10T08:28:50;16.30;99.90
25328;DHT22;13279;51.300;12.394;2023-05-10T08:31:18;16.00;99.90
25328;DHT22;13279;51.300;12.394;2023-05-10T08:33:46;16.00;99.90
25328;DHT22;13279;51.300;12.394;2023-05-10T08:36:14;16.10;99.90
25328;DHT22;13279;51.300;12.394;2023-05-10T08:38:45;16.10;99.90
25328;DHT22;13279;51.300;12.394;2023-05-10T08:41:13;16.00;99.90
25328;DHT22;13279;51.300;12.394;2023-05-10T08:43:41;15.80;99.90
25328;DHT22;13279;51.300;12.394;2023-05-10T08:46:14;15.70;99.90
25328;DHT22;13279;51.300;12.394;2023-05-10T08:48:43;15.60;99.90
25328;DHT22;13279;51.300;12.394;2023-05-10T08:51:14;15.70;99.90
25328;DHT22;13279;51.300;12.394;2023-05-10T08:53:42;15.60;99.90
25328;DHT22;13279;51.300;12.394;2023-05-10T08:56:10;15.50;99.90
25328;DHT22;13279;51.300;12.394;2023-05-10T08:58:38;15.30;99.90
25328;DHT22;13279;51.300;12.394;2023-05-10T09:01:06;15.00;99.90
25328;DHT22;13279;51.300;12.394;2023-05-10T09:03:35;14.90;99.90
25328;DHT22;13279;51.300;12.394;2023-05-10T09:06:06;14.80;99.90
25328;DHT22;13279;51.300;12.394;2023-05-10T09:08:36;14.80;99.90
25328;DHT22;13279;51.300;12.394;2023-05-10T09:11:04;14.70;99.90
25328;DHT22;13279;51.300;12.394;2023-05-10T09:13:32;14.60;99.90
25328;DHT22;13279;51.300;12.394;2023-05-10T09:16:00;14.40;99.90
25328;DHT22;13279;51.300;12.394;2023-05-10T09:18:28;14.20;99.90
25328;DHT22;13279;51.300;12.394;2023-05-10T09:20:55;14.00;99.90
25328;DHT22;13279;51.300;12.394;2023-05-10T09:23:23;13.90;99.90
25328;DHT22;13279;51.300;12.394;2023-05-10T09:26:05;13.70;99.90
25328;DHT22;13279;51.300;12.394;2023-05-10T09:28:33;13.70;99.90
25328;DHT22;13279;51.300;12.394;2023-05-10T09:31:00;13.70;99.90
25328;DHT22;13279;51.300;12.394;2023-05-10T09:33:28;13.70;99.90
25328;DHT22;13279;51.300;12.394;2023-05-10T09:36:06;13.50;99.90
25328;DHT22;13279;51.300;12.394;2023-05-10T09:38:45;13.50;99.90
25328;DHT22;13279;51.300;12.394;2023-05-10T09:41:17;13.40;99.90
25328;DHT22;13279;51.300;12.394;2023-05-10T09:43:45;13.20;99.90
25328;DHT22;13279;51.300;12.394;2023-05-10T09:46:12;13.20;99.90
25328;DHT22;13279;51.300;12.394;2023-05-10T09:48:42;13.20;99.90
25328;DHT22;13279;51.300;12.394;2023-05-10T09:51:10;13.20;99.90
25328;DHT22;13279;51.300;12.394;2023-05-10T09:53:40;13.10;99.90
25328;DHT22;13279;51.300;12.394;2023-05-10T09:56:07;13.10;99.90
25328;DHT22;13279;51.300;12.394;2023-05-10T09:58:37;13.00;99.90
25328;DHT22;13279;51.300;12.394;2023-05-10T10:01:11;13.00;99.90
25328;DHT22;13279;51.300;12.394;2023-05-10T10:03:42;13.00;99.90
25328;DHT22;13279;51.300;12.394;2023-05-10T10:06:10;13.00;99.90
25328;DHT22;13279;51.300;12.394;2023-05-10T10:08:38;13.00;99.90
25328;DHT22;13279;51.300;12.394;2023-05-10T10:11:06;13.00;99.90
25328;DHT22;13279;51.300;12.394;2023-05-10T10:13:33;13.10;99.90
25328;DHT22;13279;51.300;12.394;2023-05-10T10:16:03;13.20;99.90
25328;DHT22;13279;51.300;12.394;2023-05-10T10:18:31;13.30;99.90
25328;DHT22;13279;51.300;12.394;2023-05-10T10:20:59;13.30;99.90
25328;DHT22;13279;51.300;12.394;2023-05-10T10:23:27;13.30;99.90
25328;DHT22;13279;51.300;12.394;2023-05-10T10:25:58;13.50;99.90
25328;DHT22;13279;51.300;12.394;2023-05-10T10:28:35;13.50;99.90
25328;DHT22;13279;51.300;12.394;2023-05-10T10:31:19;13.50;99.90
25328;DHT22;13279;51.300;12.394;2023-05-10T10:33:56;13.60;99.90
25328;DHT22;13279;51.300;12.394;2023-05-10T10:36:28;13.70;99.90
25328;DHT22;13279;51.300;12.394;2023-05-10T10:38:59;13.70;99.90
25328;DHT22;13279;51.300;12.394;2023-05-10T10:41:29;13.60;99.90
25328;DHT22;13279;51.300;12.394;2023-05-10T10:44:22;13.60;99.90
25328;DHT22;13279;51.300;12.394;2023-05-10T10:47:06;13.60;99.90
25328;DHT22;13279;51.300;12.394;2023-05-10T10:49:41;13.60;99.90
25328;DHT22;13279;51.300;12.394;2023-05-10T10:52:21;13.60;99.90
25328;DHT22;13279;51.300;12.394;2023-05-10T10:54:53;13.60;99.90
25328;DHT22;13279;51.300;12.394;2023-05-10T11:02:57;13.50;99.90
25328;DHT22;13279;51.300;12.394;2023-05-10T11:06:05;13.40;99.90
25328;DHT22;13279;51.300;12.394;2023-05-10T11:08:58;13.50;99.90
25328;DHT22;13279;51.300;12.394;2023-05-10T11:14:27;13.60;99.90
25328;DHT22;13279;51.300;12.394;2023-05-10T11:20:04;13.60;99.90
25328;DHT22;13279;51.300;12.394;2023-05-10T11:20:52;13.60;99.90
25328;DHT22;13279;51.300;12.394;2023-05-10T11:30:18;13.70;99.90
25328;DHT22;13279;51.300;12.394;2023-05-10T11:32:51;13.90;99.90
25328;DHT22;13279;51.300;12.394;2023-05-10T11:35:37;14.10;99.90
25328;DHT22;13279;51.300;12.394;2023-05-10T11:45:42;14.00;99.90
25328;DHT22;13279;51.300;12.394;2023-05-10T11:48:53;14.10;99.90
25328;DHT22;13279;51.300;12.394;2023-05-10T11:51:41;14.20;99.90
25328;DHT22;13279;51.300;12.394;2023-05-10T11:54:14;14.20;99.90
25328;DHT22;13279;51.300;12.394;2023-05-10T11:56:47;14.30;99.90
25328;DHT22;13279;51.300;12.394;2023-05-10T12:03:00;14.30;99.90
25328;DHT22;13279;51.300;12.394;2023-05-10T12:06:02;14.40;99.90
25328;DHT22;13279;51.300;12.394;2023-05-10T12:08:46;14.60;99.90
25328;DHT22;13279;51.300;12.394;2023-05-10T12:11:26;14.70;99.90
25328;DHT22;13279;51.300;12.394;2023-05-10T12:13:57;14.60;99.90
25328;DHT22;13279;51.300;12.394;2023-05-10T12:16:39;14.60;99.90
25328;DHT22;13279;51.300;12.394;2023-05-10T12:19:40;14.50;99.90
25328;DHT22;13279;51.300;12.394;2023-05-10T12:22:09;14.60;99.90
25328;DHT22;13279;51.300;12.394;2023-05-10T12:24:37;14.60;99.90
25328;DHT22;13279;51.300;12.394;2023-05-10T12:27:08;14.60;99.90
25328;DHT22;13279;51.300;12.394;2023-05-10T12:29:36;14.70;99.90
25328;DHT22;13279;51.300;12.394;2023-05-10T12:32:07;14.70;99.90
25328;DHT22;13279;51.300;12.394;2023-05-10T12:34:35;14.80;99.90
25328;DHT22;13279;51.300;12.394;2023-05-10T12:37:05;14.90;99.90
25328;DHT22;13279;51.300;12.394;2023-05-10T12:39:40;15.00;99.90
25328;DHT22;13279;51.300;12.394;2023-05-10T12:42:08;15.00;99.90
25328;DHT22;13279;51.300;12.394;2023-05-10T12:44:36;15.00;99.90
25328;DHT22;13279;51.300;12.394;2023-05-10T12:47:36;15.00;99.90
25328;DHT22;13279;51.300;12.394;2023-05-10T12:50:10;15.10;99.90
25328;DHT22;13279;51.300;12.394;2023-05-10T12:52:40;15.00;99.90
25328;DHT22;13279;51.300;12.394;2023-05-10T12:55:08;15.00;99.90
25328;DHT22;13279;51.300;12.394;2023-05-10T12:57:38;15.00;99.90
25328;DHT22;13279;51.300;12.394;2023-05-10T13:00:07;15.00;99.90
25328;DHT22;13279;51.300;12.394;2023-05-10T13:02:34;15.00;99.90
25328;DHT22;13279;51.300;12.394;2023-05-10T13:05:02;15.10;99.90
25328;DHT22;13279;51.300;12.394;2023-05-10T13:07:30;15.20;99.90
25328;DHT22;13279;51.300;12.394;2023-05-10T13:09:59;15.20;99.90
25328;DHT22;13279;51.300;12.394;2023-05-10T13:12:26;15.20;99.90
25328;DHT22;13279;51.300;12.394;2023-05-10T13:14:54;15.20;99.90
25328;DHT22;13279;51.300;12.394;2023-05-10T13:17:21;15.30;99.90
25328;DHT22;13279;51.300;12.394;2023-05-10T13:19:49;15.40;99.90
25328;DHT22;13279;51.300;12.394;2023-05-10T13:22:16;15.40;99.90
25328;DHT22;13279;51.300;12.394;2023-05-10T13:24:48;15.50;99.90
25328;DHT22;13279;51.300;12.394;2023-05-10T13:27:18;15.40;99.90
25328;DHT22;13279;51.300;12.394;2023-05-10T13:29:45;15.40;99.90
25328;DHT22;13279;51.300;12.394;2023-05-10T13:32:13;15.40;99.90
25328;DHT22;13279;51.300;12.394;2023-05-10T13:34:41;15.40;99.90
25328;DHT22;13279;51.300;12.394;2023-05-10T13:37:08;15.40;99.90
25328;DHT22;13279;51.300;12.394;2023-05-10T13:39:35;15.40;99.90
25328;DHT22;13279;51.300;12.394;2023-05-10T13:42:03;15.50;99.90
25328;DHT22;13279;51.300;12.394;2023-05-10T13:44:36;15.70;99.90
25328;DHT22;13279;51.300;12.394;2023-05-10T13:47:07;15.50;99.90
25328;DHT22;13279;51.300;12.394;2023-05-10T13:49:41;15.60;99.90
25328;DHT22;13279;51.300;12.394;2023-05-10T13:52:12;15.60;99.90
25328;DHT22;13279;51.300;12.394;2023-05-10T13:55:08;15.60;99.90
25328;DHT22;13279;51.300;12.394;2023-05-10T13:57:52;15.60;99.90
25328;DHT22;13279;51.300;12.394;2023-05-10T14:00:22;15.60;99.90
25328;DHT22;13279;51.300;12.394;2023-05-10T14:02:49;15.60;99.90
25328;DHT22;13279;51.300;12.394;2023-05-10T14:05:25;15.60;99.90
25328;DHT22;13279;51.300;12.394;2023-05-10T14:07:53;15.50;99.90
25328;DHT22;13279;51.300;12.394;2023-05-10T14:10:21;15.50;99.90
25328;DHT22;13279;51.300;12.394;2023-05-10T14:12:50;15.40;99.90
25328;DHT22;13279;51.300;12.394;2023-05-10T14:15:17;15.50;99.90
25328;DHT22;13279;51.300;12.394;2023-05-10T14:17:46;15.50;99.90
25328;DHT22;13279;51.300;12.394;2023-05-10T14:20:13;15.60;99.90
25328;DHT22;13279;51.300;12.394;2023-05-10T14:22:41;15.50;99.90
25328;DHT22;13279;51.300;12.394;2023-05-10T14:25:09;15.40;99.90
25328;DHT22;13279;51.300;12.394;2023-05-10T14:27:42;15.40;99.90
25328;DHT22;13279;51.300;12.394;2023-05-10T14:30:26;15.30;99.90
25328;DHT22;13279;51.300;12.394;2023-05-10T14:33:00;15.30;99.90
25328;DHT22;13279;51.300;12.394;2023-05-10T14:35:27;15.30;99.90
25328;DHT22;13279;51.300;12.394;2023-05-10T14:37:57;15.40;99.90
25328;DHT22;13279;51.300;12.394;2023-05-10T14:40:24;15.40;99.90
25328;DHT22;13279;51.300;12.394;2023-05-10T14:42:52;15.40;99.90
25328;DHT22;13279;51.300;12.394;2023-05-10T14:52:28;14.50;99.90
25328;DHT22;13279;51.300;12.394;2023-05-10T14:55:06;14.30;99.90
25328;DHT22;13279;51.300;12.394;2023-05-10T14:57:34;14.00;99.90
25328;DHT22;13279;51.300;12.394;2023-05-10T15:00:01;13.90;99.90
25328;DHT22;13279;51.300;12.394;2023-05-10T15:02:30;13.80;99.90
25328;DHT22;13279;51.300;12.394;2023-05-10T15:05:00;13.70;99.90
25328;DHT22;13279;51.300;12.394;2023-05-10T15:08:41;13.70;99.90
25328;DHT22;13279;51.300;12.394;2023-05-10T15:10:59;13.60;99.90
25328;DHT22;13279;51.300;12.394;2023-05-10T15:13:27;13.60;99.90
25328;DHT22;13279;51.300;12.394;2023-05-10T15:15:54;13.60;99.90
25328;DHT22;13279;51.300;12.394;2023-05-10T15:18:28;13.60;99.90
25328;DHT22;13279;51.300;12.394;2023-05-10T15:21:11;13.70;99.90
25328;DHT22;13279;51.300;12.394;2023-05-10T15:23:39;13.60;99.90
25328;DHT22;13279;51.300;12.394;2023-05-10T15:26:06;13.50;99.90
25328;DHT22;13279;51.300;12.394;2023-05-10T15:28:34;13.50;99.90
25328;DHT22;13279;51.300;12.394;2023-05-10T15:31:01;13.60;99.90
25328;DHT22;13279;51.300;12.394;2023-05-10T15:33:29;13.60;99.90
25328;DHT22;13279;51.300;12.394;2023-05-10T15:35:56;13.70;99.90
25328;DHT22;13279;51.300;12.394;2023-05-10T15:38:25;13.70;99.90
25328;DHT22;13279;51.300;12.394;2023-05-10T15:40:56;13.70;99.90
25328;DHT22;13279;51.300;12.394;2023-05-10T15:43:24;13.80;99.90
25328;DHT22;13279;51.300;12.394;2023-05-10T15:45:51;13.80;99.90
25328;DHT22;13279;51.300;12.394;2023-05-10T15:48:19;13.90;99.90
25328;DHT22;13279;51.300;12.394;2023-05-10T15:50:46;13.90;99.90
25328;DHT22;13279;51.300;12.394;2023-05-10T15:53:16;14.70;99.90
25328;DHT22;13279;51.300;12.394;2023-05-10T15:58:19;14.00;99.90
25328;DHT22;13279;51.300;12.394;2023-05-10T16:10:39;13.90;99.90
25328;DHT22;13279;51.300;12.394;2023-05-10T16:13:11;14.00;99.90
25328;DHT22;13279;51.300;12.394;2023-05-10T16:15:40;14.00;99.90
25328;DHT22;13279;51.300;12.394;2023-05-10T16:18:07;14.10;99.90
25328;DHT22;13279;51.300;12.394;2023-05-10T16:20:36;14.30;99.90
25328;DHT22;13279;51.300;12.394;2023-05-10T16:23:05;14.30;99.90
25328;DHT22;13279;51.300;12.394;2023-05-10T16:25:34;14.30;99.90
25328;DHT22;13279;51.300;12.394;2023-05-10T16:28:01;14.40;99.90